Atlantic - Newfoundland: Past 24 Hour Conditions

 

Nickerson Bank - 44251

06:00 PM AST 27 January 2015Buoy position: 46.45N 53.38W
Disclaimer

This table is a summary of hourly weather conditions for the past 24 hours.
Please note that these observations might not always be representative of weather conditions over their associated marine area.

Date / Time
(AST)
Wind(knots) Wave height(m) Wave period(s) Pressure(kPa) Air tempC) Water tempC)
27 January 2015
18:00 E 27 gust 33 4.3 8.0 101.4 1 3
17:00 E 31 gust 37 3.8 8.0 101.4 0 3
16:00 E 33 gust 41 3.7 7.0 101.5 0 3
15:00 N/A N/A N/A N/A N/A N/A
14:00 ENE 31 gust 39 2.9 6.0 102.0 -1 3
13:00 E 29 gust 35 2.7 5.0 102.3 -1 3
12:00 E 25 gust 33 2.8 10.0 102.6 -1 3
11:00 ENE 25 gust 31 2.6 11.0 102.7 -2 3
10:00 E 23 gust 27 2.4 10.0 103.0 -2 3
9:00 ENE 21 gust 25 2.5 11.0 103.1 -2 2
8:00 ENE 18 gust 21 2.7 11.0 103.1 -3 2
7:00 ENE 12 gust 16 2.8 10.0 103.2 -3 3
6:00 NE 10 gust 14 3.2 11.0 103.1 -4 2
5:00 N 8 gust 12 3.5 10.0 103.1 -4 2
4:00 N 4 gust 8 3.5 12.0 103.1 -3 2
3:00 WNW 8 gust 12 3.8 10.0 103.1 -3 2
2:00 W 8 gust 12 4.0 12.0 103.0 -3 2
1:00 WNW 12 gust 16 3.6 12.0 103.0 -3 2
0:00 WNW 16 gust 19 3.8 12.0 102.9 -3 2
26 January 2015
23:00 WNW 16 gust 19 3.9 12.0 102.8 -3 2
22:00 W 14 gust 18 3.9 12.0 102.7 -3 2
21:00 W 16 gust 21 4.4 13.0 102.7 -3 2
20:00 W 18 gust 25 4.1 13.0 102.5 -3 3
19:00 W 19 gust 25 4.4 14.0 102.4 -3 3
18:00 W 21 gust 27 4.5 13.0 102.3 -3 3
Map of Atlantic - Newfoundland marine weather areas Southwestern Grand Banks - 44138 Banquereau - 44139 Tail of the Bank - 44140 Nickerson Bank - 44251 Northeast Burgeo Bank - 44255 Blanc-Sablon Airport Cap Whittle Chevery Natashquan Airport Heath Point Miscou Island Grand Étang Ingonish Beach North Mountain St.Paul Island J.A. Douglas McCurdy Sydney Airport Charlottetown Airport East Point North Cape Argentia Bonavista Burgeo Cape Race Corner Brook Daniel's Harbour Englee Ferolle Point La Scie Port aux Basques Rocky Harbour Sagona Island St. Anthony Airport St. John's Int'l Airport St. Lawrence Stephenville Airport Twillingate Winterland Wreckhouse Cartwright Airport Mary's Harbour Grates Cove Pool's Island Marticot Island Long Pond Îles de la Madeleine Airport
Legend:
buoy Buoy
land station Land Station

Atlantic - Newfoundland Area

Another Region

What we are doing

Date modified: